Photometre #46[NE_1.6] Toulon AOT

File : 20221128_46.hum

28/11/2022,07:43:49,TEMP=11.1,BA=5.40,STAT.A=4.5,ExtBa=10.76
28/11/2022,07:48:22,TEMP=11.2,BA=5.40,STAT.A=4.5,ExtBa=10.68
28/11/2022,07:53:45,TEMP=11.2,BA=5.36,STAT.A=4.5,ExtBa=10.63
28/11/2022,08:00:15,TEMP=11.2,BA=5.36,STAT.A=4.5,ExtBa=10.60
28/11/2022,08:08:13,TEMP=11.2,BA=5.36,STAT.A=4.5,ExtBa=10.57
28/11/2022,08:09:38,TEMP=11.4,BA=5.36,STAT.b=4.5
28/11/2022,08:18:22,TEMP=11.4,BA=5.40,STAT.A=4.5,ExtBa=10.56
28/11/2022,08:19:48,TEMP=11.6,BA=5.40,STAT.b=4.5
28/11/2022,08:24:12,TEMP=11.7,BA=5.36,STAT.F,ExtBa=10.51
28/11/2022,08:39:11,TEMP=12.0,BA=5.44,STAT.D=4.5,ExtBa=10.56
28/11/2022,08:54:11,TEMP=12.0,BA=5.44,STAT.D=4.5,ExtBa=10.56
28/11/2022,09:09:11,TEMP=11.9,BA=5.44,STAT.D=4.5,ExtBa=10.57
28/11/2022,09:24:13,TEMP=12.0,BA=5.44,STAT.F,ExtBa=10.53
28/11/2022,09:39:11,TEMP=11.8,BA=5.36,STAT.D=4.5,ExtBa=10.56
28/11/2022,09:54:11,TEMP=12.1,BA=5.52,STAT.D=4.5,ExtBa=10.56
28/11/2022,10:09:11,TEMP=12.4,BA=5.52,STAT.D=4.5,ExtBa=10.63
28/11/2022,10:24:12,TEMP=12.9,BA=5.60,STAT.F,ExtBa=10.62
28/11/2022,10:39:11,TEMP=13.2,BA=5.60,STAT.D=4.5,ExtBa=10.64
28/11/2022,10:54:11,TEMP=13.5,BA=5.60,STAT.D=4.5,ExtBa=10.63
28/11/2022,11:09:11,TEMP=13.4,BA=5.56,STAT.D=4.5,ExtBa=10.58
28/11/2022,11:24:12,TEMP=13.3,BA=5.56,STAT.F,ExtBa=10.55
28/11/2022,11:39:12,TEMP=13.0,BA=5.52,STAT.D=4.5,ExtBa=10.58
28/11/2022,11:54:12,TEMP=12.9,BA=5.48,STAT.D=4.5,ExtBa=10.57
28/11/2022,12:09:11,TEMP=12.8,BA=5.48,STAT.D=4.5,ExtBa=10.57
28/11/2022,12:24:13,TEMP=12.9,BA=5.52,STAT.F,ExtBa=10.53
28/11/2022,12:39:11,TEMP=13.0,BA=5.56,STAT.D=4.5,ExtBa=10.56
28/11/2022,12:54:11,TEMP=13.2,BA=5.60,STAT.D=4.5,ExtBa=10.57
28/11/2022,13:09:11,TEMP=13.4,BA=5.64,STAT.D=4.5,ExtBa=10.60
28/11/2022,13:24:13,TEMP=13.7,BA=5.60,STAT.F,ExtBa=10.54
28/11/2022,13:39:11,TEMP=13.5,BA=5.56,STAT.D=4.5,ExtBa=10.56
28/11/2022,13:54:11,TEMP=13.3,BA=5.56,STAT.D=4.5,ExtBa=10.55
28/11/2022,14:09:13,TEMP=13.1,BA=5.56,STAT.D=4.5,ExtBa=10.54
28/11/2022,14:24:13,TEMP=12.8,BA=5.52,STAT.F,ExtBa=10.52
28/11/2022,14:30:04,TEMP=12.7,BA=5.40,STAT.A=4.5,ExtBa=10.56
28/11/2022,14:40:10,TEMP=12.6,BA=5.44,STAT.A=4.5,ExtBa=10.54
28/11/2022,14:48:10,TEMP=12.5,BA=5.44,STAT.A=4.5,ExtBa=10.54
28/11/2022,14:54:39,TEMP=12.4,BA=5.48,STAT.A=4.5,ExtBa=10.53
28/11/2022,15:00:02,TEMP=12.4,BA=5.48,STAT.A=4.5,ExtBa=10.53
28/11/2022,15:04:35,TEMP=12.3,BA=5.40,STAT.A=4.5,ExtBa=10.53